Time;durP1;ratioP1;P1;durP2;ratioP2;P2;SDS_P1;SDS_P2;PMS_P1;PMS_P2;Temp;Humidity;BMP_temperature;BMP_pressure;BME280_temperature;BME280_humidity;BME280_pressure;Samples;Min_cycle;Max_cycle;Signal;HPM_P1;HPM_P2
2022/07/25 00:00:24;;;;;;;0.10;0.10;;;;;;;17.44;81.48;99802.25;7356949;19;20776;-65
2022/07/25 00:02:50;;;;;;;0.08;0.08;;;;;;;17.59;81.44;99834.72;7358662;19;20046;-66
2022/07/25 00:05:15;;;;;;;0.10;0.10;;;;;;;17.59;81.55;99829.44;7353489;19;20014;-65
2022/07/25 00:07:40;;;;;;;0.00;0.00;;;;;;;17.58;81.03;99830.34;7358560;19;20077;-65
2022/07/25 00:10:07;;;;;;;0.00;0.00;;;;;;;17.57;80.93;99836.59;7354126;19;20158;-65
2022/07/25 00:12:32;;;;;;;0.00;0.00;;;;;;;17.57;80.50;99833.94;7358707;19;20600;-67
2022/07/25 00:14:58;;;;;;;0.10;0.10;;;;;;;17.51;80.80;99826.44;7354524;19;20019;-66
2022/07/25 00:17:24;;;;;;;0.00;0.00;;;;;;;17.51;80.37;99837.00;7357062;19;20029;-65
2022/07/25 00:19:49;;;;;;;0.10;0.10;;;;;;;17.53;80.52;99835.09;7354644;19;20010;-67
2022/07/25 00:22:14;;;;;;;0.10;0.10;;;;;;;17.50;80.75;99824.75;7357675;19;20006;-67
2022/07/25 00:24:40;;;;;;;0.10;0.10;;;;;;;17.46;80.48;99833.81;7356733;19;20007;-67
2022/07/25 00:27:05;;;;;;;0.10;0.10;;;;;;;17.51;80.63;99848.41;7359129;19;20042;-65
2022/07/25 00:29:31;;;;;;;0.00;0.00;;;;;;;17.51;80.42;99842.28;7360432;19;20054;-64
2022/07/25 00:31:56;;;;;;;0.10;0.10;;;;;;;17.50;80.28;99843.22;7361084;19;20027;-65
2022/07/25 00:34:22;;;;;;;0.00;0.00;;;;;;;17.49;80.68;99844.19;7363188;19;20030;-66
2022/07/25 00:36:47;;;;;;;0.00;0.00;;;;;;;17.37;80.46;99819.41;7362662;19;20078;-67
2022/07/25 00:39:12;;;;;;;0.00;0.00;;;;;;;17.45;80.43;99840.88;7359510;19;20007;-66
2022/07/25 00:41:38;;;;;;;0.00;0.00;;;;;;;17.46;80.52;99849.66;7361623;19;20006;-66
2022/07/25 00:44:04;;;;;;;0.00;0.00;;;;;;;17.45;80.63;99850.59;7362256;19;20022;-65
2022/07/25 00:46:29;;;;;;;0.03;0.03;;;;;;;17.43;80.46;99852.47;7363601;19;20078;-66
2022/07/25 00:48:54;;;;;;;0.00;0.00;;;;;;;17.41;80.27;99857.84;7363171;19;20010;-66
2022/07/25 00:51:20;;;;;;;0.10;0.10;;;;;;;17.40;81.08;99855.31;7362305;19;20053;-67
2022/07/25 00:53:46;;;;;;;0.10;0.10;;;;;;;17.41;81.05;99851.72;7360133;19;21163;-65
2022/07/25 00:56:12;;;;;;;0.00;0.00;;;;;;;17.27;80.76;99840.25;7361236;19;20010;-67
2022/07/25 00:58:37;;;;;;;0.00;0.00;;;;;;;17.40;81.02;99860.59;7359406;19;20011;-67
2022/07/25 01:01:03;;;;;;;0.00;0.00;;;;;;;17.38;80.84;99853.59;7361735;19;20023;-66
2022/07/25 01:03:29;;;;;;;0.00;0.00;;;;;;;17.30;80.72;99841.88;7358653;19;20249;-67
2022/07/25 01:05:54;;;;;;;0.00;0.00;;;;;;;17.39;81.15;99859.75;7359223;19;20044;-65
2022/07/25 01:08:21;;;;;;;0.08;0.08;;;;;;;17.31;80.67;99851.47;7358799;19;20094;-65
2022/07/25 01:10:49;;;;;;;0.00;0.00;;;;;;;17.38;80.83;99869.44;7357835;19;20010;-67
2022/07/25 01:13:14;;;;;;;0.10;0.10;;;;;;;17.37;81.01;99873.03;7357708;19;20410;-66
2022/07/25 01:15:42;;;;;;;0.10;0.10;;;;;;;17.37;80.94;99873.03;7357739;19;20042;-67
2022/07/25 01:18:07;;;;;;;0.10;0.10;;;;;;;17.36;80.23;99870.50;7359361;19;20016;-67
2022/07/25 01:20:33;;;;;;;0.00;0.00;;;;;;;17.35;80.35;99874.94;7360824;19;20030;-67
2022/07/25 01:22:59;;;;;;;0.00;0.00;;;;;;;17.31;80.33;99864.66;7358740;19;20070;-67
2022/07/25 01:25:25;;;;;;;0.10;0.10;;;;;;;17.31;79.90;99868.16;7360194;19;20017;-66
2022/07/25 01:27:52;;;;;;;0.03;0.03;;;;;;;17.29;79.99;99870.06;7359209;19;20014;-66
2022/07/25 01:30:18;;;;;;;0.00;0.00;;;;;;;17.26;80.53;99875.50;7359294;19;20462;-67
2022/07/25 01:32:46;;;;;;;0.00;0.00;;;;;;;17.24;80.12;99871.28;7357520;19;20014;-65
2022/07/25 01:35:12;;;;;;;0.00;0.00;;;;;;;17.22;80.41;99884.56;7356631;19;20027;-64
2022/07/25 01:37:38;;;;;;;0.00;0.00;;;;;;;17.20;79.86;99881.19;7360348;19;20021;-67
2022/07/25 01:40:05;;;;;;;0.10;0.10;;;;;;;17.17;79.84;99878.72;7357142;19;20018;-65
2022/07/25 01:42:31;;;;;;;0.10;0.10;;;;;;;17.15;80.30;99877.16;7360591;19;20023;-66
2022/07/25 01:44:56;;;;;;;0.00;0.00;;;;;;;17.08;79.90;99860.84;7360301;19;20412;-67
2022/07/25 01:47:21;;;;;;;0.00;0.00;;;;;;;17.10;80.12;99872.16;7358579;19;20502;-67
2022/07/25 01:49:47;;;;;;;0.00;0.00;;;;;;;16.98;80.11;99859.72;7362300;19;20011;-67
2022/07/25 01:52:13;;;;;;;0.00;0.00;;;;;;;17.07;79.94;99874.97;7363503;19;20122;-67
2022/07/25 01:54:39;;;;;;;0.10;0.10;;;;;;;17.07;80.47;99877.63;7361716;19;20118;-65
2022/07/25 01:57:05;;;;;;;0.10;0.10;;;;;;;16.98;80.12;99865.88;7362980;19;20021;-67
2022/07/25 01:59:30;;;;;;;0.00;0.00;;;;;;;17.05;80.35;99882.16;7353456;19;20086;-67
2022/07/25 02:01:56;;;;;;;0.00;0.00;;;;;;;17.05;80.51;99882.16;7359959;19;20081;-65
2022/07/25 02:04:21;;;;;;;0.03;0.03;;;;;;;17.00;80.64;99882.44;7362598;19;20009;-67
2022/07/25 02:06:47;;;;;;;0.00;0.00;;;;;;;17.06;80.08;99889.13;7358018;19;20027;-65
2022/07/25 02:09:13;;;;;;;0.00;0.00;;;;;;;17.06;81.02;99889.97;7361265;19;20067;-66
2022/07/25 02:11:38;;;;;;;0.10;0.10;;;;;;;17.07;80.74;99896.06;7359629;19;20010;-67
2022/07/25 02:14:04;;;;;;;0.00;0.00;;;;;;;16.99;80.93;99887.81;7360248;19;20011;-65
2022/07/25 02:16:29;;;;;;;0.05;0.05;;;;;;;17.10;80.60;99890.63;7359233;19;20014;-66
2022/07/25 02:18:55;;;;;;;0.00;0.00;;;;;;;17.12;80.56;99899.28;7359670;19;20033;-67
2022/07/25 02:21:20;;;;;;;0.00;0.00;;;;;;;17.14;80.67;99909.75;7360256;19;20007;-65
2022/07/25 02:23:46;;;;;;;0.00;0.00;;;;;;;17.15;80.68;99904.38;7355281;19;20006;-64
2022/07/25 02:26:12;;;;;;;0.00;0.00;;;;;;;17.13;80.86;99895.69;7359692;19;20020;-67
2022/07/25 02:28:39;;;;;;;0.10;0.10;;;;;;;17.13;81.21;99900.97;7358107;19;20006;-67
2022/07/25 02:31:04;;;;;;;0.00;0.00;;;;;;;17.13;81.27;99900.97;7359751;19;20007;-65
2022/07/25 02:33:30;;;;;;;0.03;0.03;;;;;;;17.22;81.07;99912.75;7355788;19;20470;-66
2022/07/25 02:35:56;;;;;;;0.00;0.00;;;;;;;17.22;81.23;99910.09;7361197;19;20002;-66
2022/07/25 02:38:21;;;;;;;0.00;0.00;;;;;;;17.21;81.00;99909.25;7360338;19;20760;-66
2022/07/25 02:40:51;;;;;;;0.10;0.10;;;;;;;17.23;81.41;99910.00;7361089;19;20737;-66
2022/07/25 02:43:17;;;;;;;0.00;0.00;;;;;;;17.20;81.18;99912.00;7361387;19;20006;-67
2022/07/25 02:45:43;;;;;;;0.08;0.08;;;;;;;17.17;81.45;99906.91;7359527;19;20141;-67
2022/07/25 02:48:09;;;;;;;0.00;0.00;;;;;;;17.20;81.16;99918.13;7360570;19;20011;-65
2022/07/25 02:50:34;;;;;;;0.00;0.00;;;;;;;17.21;80.91;99919.81;7359966;19;20011;-67
2022/07/25 02:53:00;;;;;;;0.00;0.00;;;;;;;17.08;80.74;99897.75;7360388;19;20016;-65
2022/07/25 02:55:26;;;;;;;0.00;0.00;;;;;;;17.23;81.29;99919.72;7359673;19;20014;-67
2022/07/25 02:57:51;;;;;;;0.00;0.00;;;;;;;17.19;81.11;99913.78;7359035;19;20014;-67
2022/07/25 03:00:17;;;;;;;0.10;0.10;;;;;;;17.23;80.89;99912.63;7358882;19;20011;-66
2022/07/25 03:02:43;;;;;;;0.00;0.00;;;;;;;17.23;81.19;99907.34;7356787;19;20713;-67
2022/07/25 03:05:10;;;;;;;0.00;0.00;;;;;;;17.25;81.27;99904.66;7347721;19;20018;-64
2022/07/25 03:07:36;;;;;;;0.00;0.00;;;;;;;17.21;81.22;99906.63;7356818;19;20014;-67
2022/07/25 03:10:04;;;;;;;0.00;0.00;;;;;;;17.26;81.42;99912.44;7358924;19;20014;-67
2022/07/25 03:12:31;;;;;;;0.00;0.00;;;;;;;17.22;81.00;99908.31;7359978;19;20032;-65
2022/07/25 03:14:57;;;;;;;0.00;0.00;;;;;;;17.28;81.21;99915.84;7358004;19;20025;-67
2022/07/25 03:17:22;;;;;;;0.10;0.10;;;;;;;17.02;81.10;99866.50;7360258;19;20014;-65
2022/07/25 03:19:48;;;;;;;0.10;0.10;;;;;;;17.30;81.50;99919.25;7351444;19;20045;-67
2022/07/25 03:22:13;;;;;;;0.00;0.00;;;;;;;17.30;80.96;99913.97;7357534;19;20355;-66
2022/07/25 03:24:39;;;;;;;0.00;0.00;;;;;;;17.32;81.29;99914.69;7359280;19;20576;-65
2022/07/25 03:27:04;;;;;;;0.00;0.00;;;;;;;17.34;81.19;99915.47;7358550;19;20018;-67
2022/07/25 03:29:30;;;;;;;0.00;0.00;;;;;;;17.36;81.06;99918.00;7359872;19;20068;-67
2022/07/25 03:31:55;;;;;;;0.00;0.00;;;;;;;17.36;81.17;99924.13;7364576;19;20011;-66
2022/07/25 03:34:20;;;;;;;0.00;0.00;;;;;;;17.37;81.20;99917.91;7367940;19;20013;-67
2022/07/25 03:36:46;;;;;;;0.00;0.00;;;;;;;17.37;80.69;99915.25;7362901;19;20017;-68
2022/07/25 03:39:13;;;;;;;0.00;0.00;;;;;;;17.36;80.83;99924.13;7366365;19;20056;-66
2022/07/25 03:41:38;;;;;;;0.10;0.10;;;;;;;17.38;81.15;99927.50;7367046;19;20014;-67
2022/07/25 03:44:04;;;;;;;0.10;0.10;;;;;;;17.38;81.04;99924.00;7365302;19;20147;-67
2022/07/25 03:46:29;;;;;;;0.00;0.00;;;;;;;17.37;81.15;99925.81;7365681;19;20010;-66
2022/07/25 03:48:54;;;;;;;0.10;0.10;;;;;;;17.38;80.92;99927.50;7365825;19;20013;-67
2022/07/25 03:51:20;;;;;;;0.00;0.00;;;;;;;17.38;80.59;99926.66;7366001;19;20040;-66
2022/07/25 03:54:04;;;;;;;0.00;0.00;;;;;;;17.40;80.93;99939.78;7366339;19;20019;-66
2022/07/25 03:56:50;;;;;;;0.00;0.00;;;;;;;17.44;80.57;99941.28;7365653;19;20024;-67
2022/07/25 03:59:18;;;;;;;0.00;0.00;;;;;;;17.35;81.13;99935.63;7363177;19;20014;-67
2022/07/25 04:01:45;;;;;;;0.10;0.10;;;;;;;17.36;81.42;99939.13;7366520;19;20027;-67
2022/07/25 04:04:10;;;;;;;0.00;0.00;;;;;;;17.40;81.12;99951.19;7366499;19;20006;-66
2022/07/25 04:06:37;;;;;;;0.10;0.10;;;;;;;17.37;81.09;99946.94;7364912;19;20019;-67
2022/07/25 04:09:03;;;;;;;0.07;0.07;;;;;;;17.43;80.74;99968.59;7365713;19;20014;-65
2022/07/25 04:11:29;;;;;;;0.05;0.05;;;;;;;17.43;80.72;99965.97;7366946;19;21425;-68
2022/07/25 04:13:55;;;;;;;0.00;0.00;;;;;;;17.37;80.80;99957.47;7364214;19;20002;-68
2022/07/25 04:16:21;;;;;;;0.10;0.10;;;;;;;17.45;80.89;99969.38;7369317;19;20018;-68
2022/07/25 04:18:47;;;;;;;0.00;0.00;;;;;;;17.46;81.05;99968.41;7365388;19;20014;-67
2022/07/25 04:21:12;;;;;;;0.00;0.00;;;;;;;17.44;80.60;99968.53;7367072;19;20033;-67
2022/07/25 04:23:38;;;;;;;0.10;0.10;;;;;;;17.47;81.07;99967.47;7364293;19;20010;-66
2022/07/25 04:26:03;;;;;;;0.00;0.00;;;;;;;17.49;80.64;99971.72;7364919;19;20114;-68
2022/07/25 04:28:29;;;;;;;0.00;0.00;;;;;;;17.50;80.42;99977.84;7363741;19;20007;-66
2022/07/25 04:30:55;;;;;;;0.00;0.00;;;;;;;17.52;80.37;99975.94;7364332;19;20014;-67
2022/07/25 04:33:21;;;;;;;0.00;0.00;;;;;;;17.52;80.70;99978.59;7366215;19;20049;-67
2022/07/25 04:35:47;;;;;;;0.00;0.00;;;;;;;17.51;80.50;99979.53;7363805;19;20632;-68
2022/07/25 04:38:12;;;;;;;0.03;0.03;;;;;;;17.53;80.37;99980.28;7366763;19;20046;-66
2022/07/25 04:40:38;;;;;;;0.10;0.10;;;;;;;17.53;80.32;99975.84;7364693;19;20037;-66
2022/07/25 04:43:04;;;;;;;0.00;0.00;;;;;;;17.48;80.52;99967.38;7366017;19;20010;-67
2022/07/25 04:45:31;;;;;;;0.00;0.00;;;;;;;17.52;80.06;99973.31;7363817;19;20018;-68
2022/07/25 04:47:56;;;;;;;0.00;0.00;;;;;;;17.36;80.02;99947.88;7364111;19;20085;-68
2022/07/25 04:50:22;;;;;;;0.00;0.00;;;;;;;17.48;79.54;99974.44;7366291;19;20027;-68
2022/07/25 04:52:47;;;;;;;0.00;0.00;;;;;;;17.45;79.40;99979.94;7364003;19;20462;-68
2022/07/25 04:55:13;;;;;;;0.00;0.00;;;;;;;17.27;79.13;99966.06;7363439;19;20018;-67
2022/07/25 04:57:38;;;;;;;0.10;0.10;;;;;;;17.35;79.71;99984.94;7362022;19;20014;-68
2022/07/25 05:00:06;;;;;;;0.00;0.00;;;;;;;17.34;79.78;99994.63;7364655;19;20011;-68
2022/07/25 05:02:32;;;;;;;0.10;0.10;;;;;;;17.31;80.02;99994.81;7365451;19;20018;-66
2022/07/25 05:04:58;;;;;;;0.00;0.00;;;;;;;17.22;79.93;99984.81;7366112;19;20014;-66
2022/07/25 05:07:23;;;;;;;0.00;0.00;;;;;;;17.29;80.03;100001.16;7361325;19;20014;-66
2022/07/25 05:09:49;;;;;;;0.10;0.10;;;;;;;17.21;80.07;99991.06;7364095;19;20014;-68
2022/07/25 05:12:14;;;;;;;0.00;0.00;;;;;;;17.27;80.09;100003.88;7366442;19;20407;-68
2022/07/25 05:14:39;;;;;;;0.00;0.00;;;;;;;17.14;79.82;99989.75;7365351;19;20017;-67
2022/07/25 05:17:05;;;;;;;0.00;0.00;;;;;;;17.19;79.68;99994.75;7364549;19;20006;-66
2022/07/25 05:19:30;;;;;;;0.08;0.08;;;;;;;17.25;79.62;100021.59;7364294;19;20007;-68
2022/07/25 05:21:56;;;;;;;0.03;0.03;;;;;;;17.09;80.23;99994.44;7365031;19;20014;-68
2022/07/25 05:24:22;;;;;;;0.05;0.05;;;;;;;17.25;80.61;100026.88;7365589;19;20539;-68
2022/07/25 05:26:48;;;;;;;0.00;0.00;;;;;;;17.26;80.22;100023.28;7362757;19;20019;-68
2022/07/25 05:29:14;;;;;;;0.10;0.10;;;;;;;17.23;80.72;100010.25;7365612;19;20041;-68
2022/07/25 05:31:39;;;;;;;0.00;0.00;;;;;;;17.34;80.54;100028.94;7364131;19;20105;-68
2022/07/25 05:34:05;;;;;;;0.00;0.00;;;;;;;17.40;80.42;100029.50;7363586;19;20010;-66
2022/07/25 05:36:32;;;;;;;0.10;0.10;;;;;;;17.44;80.95;100025.75;7364093;19;20022;-68
2022/07/25 05:38:58;;;;;;;0.00;0.00;;;;;;;17.44;80.65;100031.03;7361537;19;20048;-68
2022/07/25 05:41:23;;;;;;;0.00;0.00;;;;;;;17.57;80.52;100043.34;7363364;19;20461;-66
2022/07/25 05:43:48;;;;;;;0.05;0.05;;;;;;;17.62;80.21;100041.28;7365452;19;20457;-67
2022/07/25 05:46:14;;;;;;;0.00;0.00;;;;;;;17.71;80.30;100046.94;7363712;19;20021;-67
2022/07/25 05:48:41;;;;;;;0.00;0.00;;;;;;;17.74;79.80;100059.97;7363502;19;20018;-69
2022/07/25 05:51:06;;;;;;;0.10;0.10;;;;;;;17.78;80.00;100066.75;7360961;19;20015;-68
2022/07/25 05:53:32;;;;;;;0.08;0.08;;;;;;;17.79;79.98;100056.13;7359094;19;20366;-67
2022/07/25 05:55:58;;;;;;;0.00;0.00;;;;;;;17.72;79.67;100062.69;7361822;19;20014;-67
2022/07/25 05:58:24;;;;;;;0.10;0.10;;;;;;;17.82;79.34;100073.53;7356681;19;20009;-66
2022/07/25 06:00:52;;;;;;;0.10;0.10;;;;;;;17.78;79.13;100078.16;7364622;19;20011;-66
2022/07/25 06:03:18;;;;;;;0.00;0.00;;;;;;;17.84;79.00;100082.22;7360340;19;20074;-68
2022/07/25 06:05:45;;;;;;;0.00;0.00;;;;;;;17.85;79.27;100094.50;7362142;19;20573;-69
2022/07/25 06:08:11;;;;;;;0.00;0.00;;;;;;;17.85;79.25;100092.69;7357638;19;20011;-67
2022/07/25 06:10:36;;;;;;;0.05;0.05;;;;;;;17.83;78.64;100101.66;7363763;19;20034;-68
2022/07/25 06:13:02;;;;;;;0.00;0.00;;;;;;;17.86;78.53;100112.88;7360680;19;20015;-66
2022/07/25 06:15:27;;;;;;;0.00;0.00;;;;;;;17.86;78.74;100107.59;7357122;19;20014;-68
2022/07/25 06:17:53;;;;;;;0.08;0.08;;;;;;;17.87;78.31;100109.28;7359472;19;20799;-66
2022/07/25 06:20:19;;;;;;;0.00;0.00;;;;;;;17.87;78.38;100111.94;7359591;19;20570;-68
2022/07/25 06:22:44;;;;;;;0.00;0.00;;;;;;;17.86;78.34;100112.88;7358189;19;20743;-66
2022/07/25 06:25:10;;;;;;;0.10;0.10;;;;;;;17.87;78.02;100122.50;7360539;19;20020;-69
2022/07/25 06:27:36;;;;;;;0.10;0.10;;;;;;;17.86;78.23;100131.38;7357068;19;20011;-67
2022/07/25 06:30:04;;;;;;;0.10;0.10;;;;;;;17.86;77.58;100133.16;7359730;19;20010;-68
2022/07/25 06:32:30;;;;;;;0.10;0.10;;;;;;;17.85;78.26;100142.03;7359582;19;20010;-67
2022/07/25 06:34:55;;;;;;;0.10;0.10;;;;;;;17.84;77.12;100145.59;7363141;19;20018;-67
2022/07/25 06:37:20;;;;;;;0.10;0.10;;;;;;;17.77;77.36;100134.56;7361710;19;20014;-67
2022/07/25 06:39:46;;;;;;;0.05;0.05;;;;;;;17.85;77.65;100153.44;7361709;19;20014;-68
2022/07/25 06:42:11;;;;;;;0.05;0.05;;;;;;;17.85;77.87;100164.00;7360922;19;20479;-68
2022/07/25 06:44:36;;;;;;;0.10;0.10;;;;;;;17.86;78.02;100162.22;7351981;19;20051;-66
2022/07/25 06:47:03;;;;;;;0.00;0.00;;;;;;;17.73;77.40;100135.69;7360063;19;20034;-68
2022/07/25 06:49:28;;;;;;;0.00;0.00;;;;;;;17.81;78.05;100162.50;7358801;19;20372;-69
2022/07/25 06:51:53;;;;;;;0.10;0.10;;;;;;;17.81;77.42;100157.22;7357915;19;20006;-66
2022/07/25 06:54:19;;;;;;;0.03;0.03;;;;;;;17.77;77.00;100154.84;7357518;19;20022;-68
2022/07/25 06:56:44;;;;;;;0.00;0.00;;;;;;;17.76;77.02;100154.00;7359397;19;20744;-67
2022/07/25 06:59:10;;;;;;;0.10;0.10;;;;;;;17.92;76.88;100163.63;7356538;19;20014;-68
2022/07/25 07:01:35;;;;;;;0.00;0.00;;;;;;;17.93;77.69;100160.03;7357756;19;20033;-68
2022/07/25 07:04:01;;;;;;;0.10;0.10;;;;;;;17.92;77.36;100158.34;7357675;19;20015;-67
2022/07/25 07:06:27;;;;;;;0.00;0.00;;;;;;;17.98;77.14;100174.66;7360019;19;20018;-68
2022/07/25 07:08:53;;;;;;;0.00;0.00;;;;;;;18.04;76.13;100184.84;7365626;19;20018;-68
2022/07/25 07:11:18;;;;;;;0.00;0.00;;;;;;;18.06;76.07;100187.41;7364660;19;20035;-68
2022/07/25 07:13:44;;;;;;;0.10;0.10;;;;;;;18.07;76.29;100194.38;7367612;19;20021;-67
2022/07/25 07:16:09;;;;;;;0.00;0.00;;;;;;;18.01;75.80;100192.13;7352760;19;20015;-66
2022/07/25 07:18:35;;;;;;;0.10;0.10;;;;;;;18.04;75.66;100198.06;7368067;19;20022;-66
2022/07/25 07:21:01;;;;;;;0.10;0.10;;;;;;;18.05;75.90;100202.41;7366834;19;20287;-67
2022/07/25 07:23:27;;;;;;;0.00;0.00;;;;;;;18.05;75.80;100201.56;7367280;19;20010;-68
2022/07/25 07:25:52;;;;;;;0.00;0.00;;;;;;;18.16;75.61;100225.53;7363979;19;20010;-67
2022/07/25 07:28:17;;;;;;;0.00;0.00;;;;;;;18.20;75.63;100211.19;7367565;19;20007;-67
2022/07/25 07:30:43;;;;;;;0.00;0.00;;;;;;;18.19;75.01;100208.63;7363500;19;20302;-65
2022/07/25 07:33:08;;;;;;;0.03;0.03;;;;;;;18.26;74.76;100220.53;7363235;19;20017;-67
2022/07/25 07:35:34;;;;;;;0.00;0.00;;;;;;;18.35;74.52;100230.53;7364094;19;20066;-67
2022/07/25 07:37:59;;;;;;;0.00;0.00;;;;;;;18.39;75.22;100238.16;7361050;19;20554;-68
2022/07/25 07:40:25;;;;;;;0.00;0.00;;;;;;;18.47;74.22;100247.41;7358458;19;20021;-67
2022/07/25 07:42:51;;;;;;;0.00;0.00;;;;;;;18.41;75.21;100209.84;7364037;19;20089;-66
2022/07/25 07:45:20;;;;;;;0.00;0.00;;;;;;;18.54;74.47;100238.16;7368826;19;22420;-67
2022/07/25 07:47:48;;;;;;;0.00;0.00;;;;;;;18.59;73.88;100244.00;7363152;19;20070;-68
2022/07/25 07:50:15;;;;;;;0.10;0.10;;;;;;;18.62;74.05;100254.38;7362919;19;20355;-66
2022/07/25 07:52:41;;;;;;;0.10;0.10;;;;;;;18.52;73.71;100242.69;7364362;19;20454;-67
2022/07/25 07:57:51;;;;;;;0.00;0.00;;;;;;;18.63;74.04;100254.28;7364075;19;20030;-68
2022/07/25 08:00:18;;;;;;;0.10;0.10;;;;;;;18.69;74.35;100268.09;7365365;19;20006;-66
2022/07/25 08:02:49;;;;;;;0.05;0.05;;;;;;;18.71;73.59;100282.09;7358278;19;20002;-66
2022/07/25 08:05:27;;;;;;;0.00;0.00;;;;;;;18.74;74.36;100285.38;7363251;19;20883;-67
2022/07/25 08:07:52;;;;;;;0.10;0.10;;;;;;;18.63;73.34;100282.53;7353900;19;20041;-67
2022/07/25 08:10:23;;;;;;;0.00;0.00;;;;;;;18.72;74.37;100289.06;7355802;19;20478;-67
2022/07/25 08:12:49;;;;;;;0.00;0.00;;;;;;;18.73;73.16;100304.00;7351964;19;20474;-67
2022/07/25 08:15:16;;;;;;;0.00;0.00;;;;;;;18.74;73.10;100298.59;7355834;19;20078;-66
2022/07/25 08:17:42;;;;;;;0.10;0.10;;;;;;;18.76;73.48;100287.94;7361105;19;20086;-67
2022/07/25 08:20:09;;;;;;;0.10;0.10;;;;;;;18.72;73.32;100283.78;7364687;19;20048;-65
2022/07/25 08:22:43;;;;;;;0.03;0.03;;;;;;;18.87;74.93;100302.19;7360706;19;20010;-66
2022/07/25 08:25:11;;;;;;;0.00;0.00;;;;;;;18.89;74.63;100305.56;7363516;19;20024;-66
2022/07/25 08:27:37;;;;;;;0.00;0.00;;;;;;;18.98;73.28;100306.78;7359867;19;20002;-66
2022/07/25 08:30:04;;;;;;;0.03;0.03;;;;;;;19.09;73.12;100319.31;7366439;19;20020;-67
2022/07/25 08:32:30;;;;;;;0.10;0.10;;;;;;;19.14;73.25;100330.47;7364433;19;20011;-67
2022/07/25 08:34:56;;;;;;;0.10;0.10;;;;;;;19.18;73.23;100327.53;7362456;19;20010;-65
2022/07/25 08:37:21;;;;;;;0.03;0.03;;;;;;;19.21;73.65;100321.19;7357748;19;20014;-67
2022/07/25 08:39:47;;;;;;;0.00;0.00;;;;;;;19.26;72.78;100323.53;7362052;19;20018;-66
2022/07/25 08:42:14;;;;;;;0.00;0.00;;;;;;;19.28;72.49;100338.38;7363742;19;20457;-66
2022/07/25 08:44:42;;;;;;;0.10;0.10;;;;;;;19.35;71.98;100350.25;7362399;19;20042;-66
2022/07/25 08:47:09;;;;;;;0.00;0.00;;;;;;;19.36;72.33;100351.97;7356259;19;20018;-66
2022/07/25 08:49:35;;;;;;;0.00;0.00;;;;;;;19.36;71.68;100354.63;7359026;19;21017;-66
2022/07/25 08:52:02;;;;;;;0.00;0.00;;;;;;;19.40;71.87;100357.91;7357411;19;20089;-67
2022/07/25 08:54:30;;;;;;;0.10;0.10;;;;;;;19.40;71.83;100358.75;7358388;19;20014;-66
2022/07/25 08:56:55;;;;;;;0.00;0.00;;;;;;;19.43;71.60;100360.38;7364344;19;20503;-67
2022/07/25 08:59:21;;;;;;;0.00;0.00;;;;;;;19.48;71.80;100374.16;7363979;19;20002;-66
2022/07/25 09:01:46;;;;;;;0.08;0.08;;;;;;;19.49;71.45;100367.06;7360228;19;20022;-67
2022/07/25 09:04:12;;;;;;;0.00;0.00;;;;;;;19.60;71.58;100385.78;7363347;19;20011;-66
2022/07/25 09:06:48;;;;;;;0.10;0.10;;;;;;;19.69;72.36;100390.47;7361170;19;20010;-67
2022/07/25 09:09:14;;;;;;;0.07;0.07;;;;;;;19.71;71.83;100391.22;7364316;19;20022;-66
2022/07/25 09:11:39;;;;;;;0.10;0.10;;;;;;;19.69;70.94;100374.56;7363114;19;20883;-66
2022/07/25 09:14:10;;;;;;;0.00;0.00;;;;;;;19.86;71.15;100395.50;7361285;19;20006;-66
2022/07/25 09:16:41;;;;;;;0.10;0.10;;;;;;;19.91;70.30;100398.69;7364152;19;20003;-67
2022/07/25 09:19:10;;;;;;;0.05;0.05;;;;;;;20.01;71.92;100406.03;7360841;19;21958;-66
2022/07/25 09:21:36;;;;;;;0.10;0.10;;;;;;;19.98;70.09;100412.41;7362902;19;20022;-67
2022/07/25 09:24:16;;;;;;;0.00;0.00;;;;;;;20.07;71.22;100421.53;7362118;19;20007;-67
2022/07/25 09:26:53;;;;;;;0.10;0.10;;;;;;;20.05;69.70;100423.44;7363573;19;20045;-66
2022/07/25 09:29:27;;;;;;;0.10;0.10;;;;;;;20.08;70.91;100418.78;7360257;19;20487;-67
2022/07/25 09:31:54;;;;;;;0.05;0.05;;;;;;;20.02;70.23;100415.69;7362730;19;20074;-66
2022/07/25 09:34:37;;;;;;;0.10;0.10;;;;;;;20.19;72.29;100442.78;7362394;19;20058;-65
2022/07/25 09:37:05;;;;;;;0.10;0.10;;;;;;;20.19;69.92;100457.84;7338176;19;20038;-67
2022/07/25 09:39:44;;;;;;;0.10;0.10;;;;;;;20.24;69.87;100455.75;7361676;19;20020;-66
2022/07/25 09:42:33;;;;;;;0.10;0.10;;;;;;;20.26;71.25;100464.44;7362118;19;20042;-67
2022/07/25 09:45:02;;;;;;;0.00;0.00;;;;;;;20.24;69.12;100455.75;7364662;19;20689;-67
2022/07/25 09:47:28;;;;;;;0.10;0.10;;;;;;;20.23;68.96;100467.31;7364676;19;20769;-65
2022/07/25 09:49:53;;;;;;;0.00;0.00;;;;;;;20.31;69.64;100475.56;7362543;19;20002;-65
2022/07/25 09:52:19;;;;;;;0.08;0.08;;;;;;;20.45;70.80;100472.84;7363079;19;20007;-66
2022/07/25 09:54:44;;;;;;;0.10;0.10;;;;;;;20.65;70.06;100468.03;7363090;19;20010;-66
2022/07/25 09:57:11;;;;;;;0.10;0.10;;;;;;;20.89;69.56;100490.25;7363277;19;20010;-66
2022/07/25 09:59:37;;;;;;;0.10;0.10;;;;;;;21.11;68.53;100484.28;7361217;19;20577;-65
2022/07/25 10:02:26;;;;;;;0.05;0.05;;;;;;;21.36;70.39;100496.72;7356973;19;20035;-65
2022/07/25 10:05:13;;;;;;;0.10;0.10;;;;;;;21.53;70.68;100490.19;7364241;19;20011;-66
2022/07/25 10:07:44;;;;;;;0.08;0.08;;;;;;;21.68;66.62;100498.88;7364235;19;20047;-65
2022/07/25 10:10:30;;;;;;;0.10;0.10;;;;;;;21.92;69.23;100502.41;7362234;19;20010;-65
2022/07/25 10:13:13;;;;;;;0.10;0.10;;;;;;;22.21;67.40;100502.09;7362895;19;20090;-65
2022/07/25 10:15:43;;;;;;;0.10;0.10;;;;;;;22.39;65.30;100511.34;7348422;19;20018;-66
2022/07/25 10:18:09;;;;;;;0.00;0.00;;;;;;;22.64;64.73;100510.34;7363589;19;20034;-65
2022/07/25 10:20:35;;;;;;;0.10;0.10;;;;;;;22.90;62.98;100526.16;7361268;19;20092;-65
2022/07/25 10:23:00;;;;;;;0.00;0.00;;;;;;;23.06;62.56;100521.34;7364914;19;20011;-65
2022/07/25 10:25:26;;;;;;;0.00;0.00;;;;;;;23.26;61.78;100533.09;7360863;19;20022;-64
2022/07/25 10:28:01;;;;;;;0.10;0.10;;;;;;;23.37;62.41;100540.25;7359536;19;20616;-65
2022/07/25 10:30:34;;;;;;;0.10;0.10;;;;;;;23.46;64.54;100550.19;7358315;19;20011;-65
2022/07/25 10:33:02;;;;;;;0.10;0.10;;;;;;;23.47;61.37;100549.22;7360225;19;20357;-65
2022/07/25 10:35:28;;;;;;;0.10;0.10;;;;;;;23.53;63.51;100554.94;7359766;19;20793;-64
2022/07/25 10:37:56;;;;;;;0.10;0.10;;;;;;;23.72;61.68;100557.03;7360168;19;20015;-64
2022/07/25 10:40:25;;;;;;;0.10;0.10;;;;;;;23.82;61.10;100541.09;7363726;19;20940;-64
2022/07/25 10:42:56;;;;;;;0.10;0.10;;;;;;;23.95;60.47;100556.97;7366647;19;20014;-65
2022/07/25 10:45:25;;;;;;;0.10;0.10;;;;;;;23.94;59.76;100557.97;7367012;19;20014;-66
2022/07/25 10:47:54;;;;;;;0.10;0.10;;;;;;;23.84;58.67;100549.00;7361471;19;20014;-65
2022/07/25 10:50:22;;;;;;;0.10;0.10;;;;;;;23.87;59.15;100570.06;7368362;19;20018;-65
2022/07/25 10:52:58;;;;;;;0.10;0.10;;;;;;;24.03;61.40;100568.72;7368903;19;20018;-65
2022/07/25 10:55:26;;;;;;;0.10;0.10;;;;;;;24.14;56.93;100572.34;7367755;19;20006;-64
2022/07/25 10:58:05;;;;;;;0.10;0.10;;;;;;;24.36;59.16;100590.97;7369067;19;20002;-64
2022/07/25 11:00:33;;;;;;;0.10;0.10;;;;;;;24.31;58.40;100585.16;7363532;19;20011;-64
2022/07/25 11:02:59;;;;;;;0.10;0.10;;;;;;;24.33;55.22;100604.53;7364837;19;20573;-64
2022/07/25 11:05:25;;;;;;;0.10;0.10;;;;;;;24.27;57.08;100605.03;7368067;19;20014;-65
2022/07/25 11:07:52;;;;;;;0.10;0.10;;;;;;;24.30;54.67;100610.16;7367916;19;20011;-64
2022/07/25 11:10:25;;;;;;;0.10;0.10;;;;;;;24.50;60.15;100608.53;7367021;19;20288;-65
2022/07/25 11:12:50;;;;;;;0.10;0.10;;;;;;;24.73;56.46;100606.63;7364251;19;20014;-64
2022/07/25 11:15:21;;;;;;;0.10;0.10;;;;;;;25.16;57.32;100609.22;7356166;19;20014;-65
2022/07/25 11:17:51;;;;;;;0.10;0.10;;;;;;;25.37;55.22;100622.56;7365464;19;20102;-65
2022/07/25 11:20:18;;;;;;;0.08;0.08;;;;;;;25.34;52.56;100631.72;7365674;19;20017;-65
2022/07/25 11:22:53;;;;;;;0.10;0.10;;;;;;;25.32;54.97;100646.19;7362760;19;20006;-65
2022/07/25 11:25:22;;;;;;;0.10;0.10;;;;;;;25.13;54.24;100635.34;7370315;19;21946;-66
2022/07/25 11:27:58;;;;;;;0.00;0.00;;;;;;;25.01;56.88;100651.41;7362379;19;20013;-65
2022/07/25 11:30:26;;;;;;;0.10;0.10;;;;;;;24.82;54.28;100653.94;7359558;19;20007;-65